METAR Data
IDs: Format: Raw Decoded Include TAF

Data at: 0351 UTC 20 Oct 2018

KSLR 200335Z AUTO 32004KT 10SM SCT005 OVC014 14/14 A3020 RMK AO2 T01410140
KSLR 200315Z AUTO 00000KT 7SM SCT005 SCT009 OVC016 14/14 A3018 RMK AO2 T01410140
KSLR 200255Z AUTO 32004KT 7SM BKN005 OVC016 14/14 A3019 RMK AO2 P0001 60007 T01410140
KSLR 200235Z AUTO 30003KT 7SM -DZ SCT003 OVC016 14/14 A3018 RMK AO2 P0001 T01410140
KSLR 200215Z AUTO 00000KT 5SM RA SCT006 OVC016 14/14 A3018 RMK AO2 P0001 T01410140
KSLR 200155Z AUTO 00000KT 7SM -RA OVC004 14/14 A3017 RMK AO2 P0003 T01400138
KSLR 200135Z AUTO 00000KT 7SM -RA BKN004 BKN012 OVC026 14/14 A3017 RMK AO2 P0003 T01400138
KSLR 200115Z AUTO 00000KT 7SM -RA SCT004 BKN012 OVC110 14/14 A3017 RMK AO2 P0001 T01400138
KSLR 200055Z AUTO 00000KT 5SM RA BKN004 BKN011 OVC070 14/14 A3016 RMK AO2 P0003 T01400137
KSLR 200035Z AUTO 00000KT 10SM -RA OVC004 14/14 A3016 RMK AO2 T01380137
KSLR 200015Z AUTO 16003KT 10SM OVC004 14/14 A3016 RMK AO2 T01370136
KSLR 192355Z AUTO 12005KT 10SM OVC004 14/14 A3015 RMK AO2 P0003 60043 T01360135 10149 20133
KSLR 192335Z AUTO 11005KT 10SM RA BKN004 BKN023 OVC100 14/14 A3015 RMK AO2 P0003 T01380136
KSLR 192315Z AUTO 08004KT 10SM -RA SCT006 BKN037 OVC110 14/14 A3016 RMK AO2 P0002 T01380136
KSLR 192255Z AUTO 00000KT 5SM RA SCT004 BKN038 OVC055 14/14 A3017 RMK AO2 P0014 T01380136
KSLR 192235Z AUTO 10003KT 2SM +RA OVC004 14/14 A3017 RMK AO2 P0011 T01380135
KSLR 192215Z AUTO 14003KT 10SM RA BKN004 OVC028 14/14 A3017 RMK AO2 P0001 T01400135
KSLR 192155Z AUTO 00000KT 10SM SCT006 BKN028 OVC080 14/13 A3016 RMK AO2 T01390134
KSLR 192135Z AUTO 06003KT 10SM -DZ SCT006 OVC028 14/13 A3017 RMK AO2 T01370132
KSLR 192115Z AUTO 05003KT 10SM -DZ SCT007 OVC025 14/13 A3017 RMK AO2 T01350131
KSLR 192055Z AUTO 05003KT 10SM -RA BKN007 OVC025 14/13 A3017 RMK AO2 P0009 60026 T01360132
KSLR 192035Z AUTO 36005KT 4SM +RA BKN007 BKN012 OVC021 14/13 A3018 RMK AO2 P0007 T01360132
KSLR 192015Z AUTO 03004KT 10SM RA BKN005 OVC022 14/13 A3018 RMK AO2 P0001 T01380133
KSLR 191955Z AUTO 36004KT 10SM RA SCT007 OVC022 14/13 A3019 RMK AO2 P0001 T01370132
KSLR 191935Z AUTO 34005KT 10SM -RA SCT005 OVC020 14/13 A3021 RMK AO2 P0001 T01350130
KSLR 191915Z AUTO 01005KT 10SM BKN005 OVC020 13/13 A3021 RMK AO2 P0001 T01330130
KSLR 191855Z AUTO 36008KT 3SM -RA SCT005 OVC017 14/13 A3021 RMK AO2 P0016 T01380132
KSLR 191835Z AUTO 36005KT 7SM RA OVC017 14/13 A3023 RMK AO2 T01400125
KSLR 191815Z AUTO 33006KT 10SM OVC017 14/13 A3024 RMK AO2 T01440126
KSLR 191755Z AUTO 34005KT 10SM OVC017 15/12 A3023 RMK AO2 P0002 60002 T01480122 10151 20145
KSLR 191735Z AUTO 01003KT 7SM -RA OVC017 15/12 A3024 RMK AO2 P0002 T01490118
KSLR 191715Z AUTO 00000KT 10SM RA OVC017 15/11 A3024 RMK AO2 T01500113
KSLR 191655Z AUTO 04003KT 10SM BKN017 BKN023 15/11 A3025 RMK AO2 T01500109
KSLR 191635Z AUTO 02004KT 10SM BKN022 15/11 A3025 RMK AO2 T01500114
KSLR 191615Z AUTO 03003KT 10SM -RA OVC022 15/11 A3025 RMK AO2 T01470111
KSLR 191555Z AUTO 00000KT 10SM -RA BKN022 OVC029 15/11 A3026 RMK AO2 T01460114
KSLR 191535Z AUTO 07003KT 10SM -RA BKN024 OVC029 15/11 A3026 RMK AO2 T01470113
KSLR 191515Z AUTO 00000KT 10SM OVC026 15/11 A3027 RMK AO2 T01470109
KSLR 191455Z AUTO 02003KT 10SM OVC026 15/11 A3027 RMK AO2 T01450107
KSLR 191435Z AUTO 02003KT 10SM OVC024 15/11 A3027 RMK AO2 T01450107
KSLR 191415Z AUTO 00000KT 10SM OVC024 15/11 A3027 RMK AO2 T01450106
KSLR 191355Z AUTO 05003KT 10SM OVC024 15/11 A3026 RMK AO2 T01450108
KSLR 191335Z AUTO 00000KT 10SM OVC024 15/11 A3026 RMK AO2 T01450107
KSLR 191315Z AUTO 00000KT 10SM OVC024 15/11 A3025 RMK AO2 T01450105
KSLR 191255Z AUTO 00000KT 10SM OVC024 15/11 A3024 RMK AO2 T01450106
KSLR 191235Z AUTO 07003KT 10SM OVC022 15/11 A3025 RMK AO2 T01450107
KSLR 191215Z AUTO 08003KT 10SM BKN022 OVC037 15/11 A3025 RMK AO2 T01450106
KSLR 191155Z AUTO 00000KT 10SM BKN024 OVC037 15/11 A3025 RMK AO2 T01450105 10150 20145
KSLR 191135Z AUTO 09004KT 10SM BKN026 OVC030 15/10 A3024 RMK AO2 T01450104
KSLR 191115Z AUTO 07003KT 10SM BKN030 OVC037 15/10 A3025 RMK AO2 T01460103
KSLR 191055Z AUTO 00000KT 10SM OVC032 15/10 A3025 RMK AO2 T01460101
KSLR 191035Z AUTO 07003KT 10SM OVC036 15/10 A3025 RMK AO2 T01460099
KSLR 191015Z AUTO 07003KT 10SM OVC036 15/10 A3024 RMK AO2 T01460100
KSLR 190955Z AUTO 07005KT 10SM OVC034 15/10 A3024 RMK AO2 T01470102
KSLR 190935Z AUTO 08004KT 10SM BKN031 OVC037 15/11 A3025 RMK AO2 T01480105
KSLR 190915Z AUTO 09004KT 10SM SCT026 BKN039 OVC046 15/11 A3025 RMK AO2 T01480105
KSLR 190855Z AUTO 07004KT 10SM OVC046 15/11 A3025 RMK AO2 T01480108
KSLR 190835Z AUTO 07004KT 10SM SCT024 OVC048 15/11 A3025 RMK AO2 T01480111
KSLR 190815Z AUTO 08004KT 10SM SCT024 BKN055 OVC080 15/11 A3026 RMK AO2 T01500109
KSLR 190755Z AUTO 10005KT 10SM SCT060 BKN065 BKN085 15/11 A3026 RMK AO2 T01470110
KSLR 190735Z AUTO 09005KT 10SM BKN060 OVC085 15/11 A3028 RMK AO2 T01500110
KSLR 190715Z AUTO 09004KT 10SM SCT060 OVC085 15/11 A3028 RMK AO2 T01500113
KSLR 190655Z AUTO 09006KT 10SM OVC085 15/12 A3029 RMK AO2 T01490115
KSLR 190635Z AUTO 09004KT 10SM OVC085 15/12 A3029 RMK AO2 T01480115
KSLR 190615Z AUTO 07004KT 10SM BKN085 15/12 A3029 RMK AO2 T01470116
KSLR 190555Z AUTO 06004KT 10SM SCT033 15/11 A3029 RMK AO2 T01500113 10180 20150 402120130
KSLR 190535Z AUTO 09005KT 10SM SCT035 BKN043 15/12 A3030 RMK AO2 T01500115
KSLR 190515Z AUTO 09005KT 10SM SCT036 BKN043 15/12 A3031 RMK AO2 T01510116
KSLR 190455Z AUTO 08004KT 10SM SCT031 OVC036 16/12 A3032 RMK AO2 T01550116
KSLR 190435Z AUTO 08004KT 10SM SCT031 OVC036 16/12 A3032 RMK AO2 T01550116
KSLR 190415Z AUTO 07003KT 10SM OVC036 16/12 A3032 RMK AO2 T01580115
KSLR 190355Z AUTO 07005KT 10SM OVC038 16/12 A3033 RMK AO2 T01600115
KSLR 190335Z AUTO 09004KT 10SM BKN040 16/12 A3033 RMK AO2 T01570115
KSLR 190315Z AUTO 09004KT 10SM SCT042 16/11 A3034 RMK AO2 T01560113
KSLR 190255Z AUTO 08004KT 10SM SCT085 16/11 A3033 RMK AO2 T01570111
KSLR 190235Z AUTO 06005KT 10SM SCT085 16/11 A3033 RMK AO2 T01600110
KSLR 190215Z AUTO 07006KT 10SM SCT042 16/11 A3033 RMK AO2 T01620109
KSLR 190155Z AUTO 07006KT 10SM BKN044 17/11 A3033 RMK AO2 T01650108
KSLR 190135Z AUTO 06004KT 10SM OVC044 17/10 A3034 RMK AO2 T01680104
KSLR 190115Z AUTO 07003KT 10SM BKN044 OVC090 17/10 A3034 RMK AO2 T01720102
KSLR 190055Z AUTO 06005KT 10SM BKN048 OVC090 18/10 A3033 RMK AO2 T01750104
KSLR 190035Z AUTO 06005KT 10SM BKN048 BKN075 OVC090 18/11 A3033 RMK AO2 T01780105
KSLR 190015Z AUTO 05004KT 10SM SCT046 OVC075 18/11 A3033 RMK AO2 T01800108
KSLR 182355Z AUTO 06003KT 10SM SCT046 SCT065 OVC080 18/11 A3033 RMK AO2 T01800110 10212 20180
KSLR 182335Z AUTO 05004KT 10SM SCT046 OVC065 19/11 A3032 RMK AO2 T01850108
KSLR 182315Z AUTO 04003KT 10SM OVC065 19/11 A3033 RMK AO2 T01850111
KSLR 182255Z AUTO 05004KT 10SM SCT050 OVC065 19/11 A3032 RMK AO2 T01900108
KSLR 182235Z AUTO 05004KT 10SM SCT050 OVC065 19/11 A3032 RMK AO2 T01910109
KSLR 182215Z AUTO 06005KT 10SM SCT050 OVC065 20/11 A3033 RMK AO2 T01950111
KSLR 182155Z AUTO 06005KT 10SM BKN050 OVC060 20/11 A3033 RMK AO2 T01960107
KSLR 182135Z AUTO 06006KT 10SM BKN050 OVC075 20/10 A3034 RMK AO2 T01980104
KSLR 182115Z AUTO 07004KT 10SM OVC050 20/10 A3034 RMK AO2 T02020102
KSLR 182055Z AUTO 09007KT 10SM OVC055 20/10 A3034 RMK AO2 T02030096
KSLR 182035Z AUTO 09009KT 10SM BKN055 21/10 A3034 RMK AO2 T02050101
KSLR 182015Z AUTO 09009KT 10SM CLR 21/10 A3034 RMK AO2 T02110101
KSLR 181955Z AUTO 07007KT 7SM CLR 20/10 A3035 RMK AO2 T02010099
KSLR 181935Z AUTO 10008KT 10SM SCT070 20/10 A3036 RMK AO2 T02000096
KSLR 181915Z AUTO 09009KT 10SM SCT070 20/09 A3037 RMK AO2 T02000094
KSLR 181855Z AUTO 09007KT 10SM SCT070 20/10 A3038 RMK AO2 T01980099
KSLR 181835Z AUTO 08009KT 10SM CLR 20/10 A3039 RMK AO2 T01990098
KSLR 181815Z AUTO 09009KT 10SM CLR 20/11 A3039 RMK AO2 T02040105
KSLR 181755Z AUTO 10010KT 10SM CLR 20/10 A3040 RMK AO2 T02010101 10201 20138
KSLR 181735Z AUTO 10011KT 10SM CLR 19/10 A3041 RMK AO2 T01910099
KSLR 181715Z AUTO 07012G15KT 10SM CLR 19/10 A3042 RMK AO2 T01930097
KSLR 181655Z AUTO 08013G17KT 10SM SCT090 18/09 A3043 RMK AO2 T01820091
KSLR 181635Z AUTO 08009G14KT 10SM SCT060 OVC090 18/10 A3043 RMK AO2 T01820096
KSLR 181615Z AUTO 08011G16KT 10SM BKN060 OVC090 18/10 A3044 RMK AO2 T01810098
KSLR 181555Z AUTO 08009G18KT 10SM BKN060 OVC085 17/09 A3044 RMK AO2 T01660092